sensor_id;sensor_type;location;lat;lon;timestamp;P1;durP1;ratioP1;P2;durP2;ratioP2
10246;SDS011;5168;47.854;7.944;2022-12-18T00:02:13;4.93;;;4.43;;
10246;SDS011;5168;47.854;7.944;2022-12-18T00:04:39;3.33;;;3.03;;
10246;SDS011;5168;47.854;7.944;2022-12-18T00:07:05;2.80;;;2.60;;
10246;SDS011;5168;47.854;7.944;2022-12-18T00:09:30;2.60;;;2.40;;
10246;SDS011;5168;47.854;7.944;2022-12-18T00:11:56;2.20;;;2.00;;
10246;SDS011;5168;47.854;7.944;2022-12-18T00:14:22;1.80;;;1.70;;
10246;SDS011;5168;47.854;7.944;2022-12-18T00:16:47;1.53;;;1.43;;
10246;SDS011;5168;47.854;7.944;2022-12-18T00:19:13;1.80;;;1.70;;
10246;SDS011;5168;47.854;7.944;2022-12-18T00:21:39;1.80;;;1.70;;
10246;SDS011;5168;47.854;7.944;2022-12-18T00:24:06;1.80;;;1.70;;
10246;SDS011;5168;47.854;7.944;2022-12-18T00:26:33;1.80;;;1.70;;
10246;SDS011;5168;47.854;7.944;2022-12-18T00:29:01;1.73;;;1.63;;
10246;SDS011;5168;47.854;7.944;2022-12-18T00:31:32;1.80;;;1.70;;
10246;SDS011;5168;47.854;7.944;2022-12-18T00:33:58;1.90;;;1.80;;
10246;SDS011;5168;47.854;7.944;2022-12-18T00:36:29;1.80;;;1.70;;
10246;SDS011;5168;47.854;7.944;2022-12-18T00:38:57;1.90;;;1.80;;
10246;SDS011;5168;47.854;7.944;2022-12-18T00:41:24;1.87;;;1.77;;
10246;SDS011;5168;47.854;7.944;2022-12-18T00:44:09;1.97;;;1.87;;
10246;SDS011;5168;47.854;7.944;2022-12-18T00:46:37;1.90;;;1.80;;
10246;SDS011;5168;47.854;7.944;2022-12-18T00:49:03;1.60;;;1.50;;
10246;SDS011;5168;47.854;7.944;2022-12-18T00:51:29;1.60;;;1.50;;
10246;SDS011;5168;47.854;7.944;2022-12-18T00:53:55;1.63;;;1.53;;
10246;SDS011;5168;47.854;7.944;2022-12-18T00:56:21;2.00;;;1.90;;
10246;SDS011;5168;47.854;7.944;2022-12-18T00:58:47;1.90;;;1.80;;
10246;SDS011;5168;47.854;7.944;2022-12-18T01:01:13;1.80;;;1.70;;
10246;SDS011;5168;47.854;7.944;2022-12-18T01:03:38;1.73;;;1.63;;
10246;SDS011;5168;47.854;7.944;2022-12-18T01:06:08;1.90;;;1.80;;
10246;SDS011;5168;47.854;7.944;2022-12-18T01:08:35;1.80;;;1.70;;
10246;SDS011;5168;47.854;7.944;2022-12-18T01:11:06;1.50;;;1.40;;
10246;SDS011;5168;47.854;7.944;2022-12-18T01:13:42;1.70;;;1.60;;
10246;SDS011;5168;47.854;7.944;2022-12-18T01:16:10;1.70;;;1.60;;
10246;SDS011;5168;47.854;7.944;2022-12-18T01:18:36;1.50;;;1.40;;
10246;SDS011;5168;47.854;7.944;2022-12-18T01:21:09;1.70;;;1.60;;
10246;SDS011;5168;47.854;7.944;2022-12-18T01:23:36;1.70;;;1.60;;
10246;SDS011;5168;47.854;7.944;2022-12-18T01:26:10;1.60;;;1.50;;
10246;SDS011;5168;47.854;7.944;2022-12-18T01:28:38;1.90;;;1.80;;
10246;SDS011;5168;47.854;7.944;2022-12-18T01:31:10;1.60;;;1.50;;
10246;SDS011;5168;47.854;7.944;2022-12-18T01:33:36;1.90;;;1.80;;
10246;SDS011;5168;47.854;7.944;2022-12-18T01:36:02;1.60;;;1.50;;
10246;SDS011;5168;47.854;7.944;2022-12-18T01:38:28;1.90;;;1.80;;
10246;SDS011;5168;47.854;7.944;2022-12-18T01:40:57;1.70;;;1.60;;
10246;SDS011;5168;47.854;7.944;2022-12-18T01:43:40;1.60;;;1.50;;
10246;SDS011;5168;47.854;7.944;2022-12-18T01:46:20;1.70;;;1.60;;
10246;SDS011;5168;47.854;7.944;2022-12-18T01:48:48;1.60;;;1.50;;
10246;SDS011;5168;47.854;7.944;2022-12-18T01:51:17;1.90;;;1.80;;
10246;SDS011;5168;47.854;7.944;2022-12-18T01:53:43;1.70;;;1.60;;
10246;SDS011;5168;47.854;7.944;2022-12-18T01:56:12;1.60;;;1.50;;
10246;SDS011;5168;47.854;7.944;2022-12-18T01:58:41;1.80;;;1.70;;
10246;SDS011;5168;47.854;7.944;2022-12-18T02:01:13;1.83;;;1.73;;
10246;SDS011;5168;47.854;7.944;2022-12-18T02:03:43;1.80;;;1.70;;
10246;SDS011;5168;47.854;7.944;2022-12-18T02:06:13;1.93;;;1.60;;
10246;SDS011;5168;47.854;7.944;2022-12-18T02:14:17;1.70;;;1.60;;
10246;SDS011;5168;47.854;7.944;2022-12-18T02:16:59;1.60;;;1.50;;
10246;SDS011;5168;47.854;7.944;2022-12-18T02:20:13;1.67;;;1.57;;
10246;SDS011;5168;47.854;7.944;2022-12-18T02:25:10;1.90;;;1.80;;
10246;SDS011;5168;47.854;7.944;2022-12-18T02:27:44;1.80;;;1.70;;
10246;SDS011;5168;47.854;7.944;2022-12-18T02:30:13;1.73;;;1.63;;
10246;SDS011;5168;47.854;7.944;2022-12-18T02:32:41;1.70;;;1.60;;
10246;SDS011;5168;47.854;7.944;2022-12-18T02:35:12;1.73;;;1.63;;
10246;SDS011;5168;47.854;7.944;2022-12-18T02:37:41;1.73;;;1.63;;
10246;SDS011;5168;47.854;7.944;2022-12-18T02:40:09;1.83;;;1.73;;
10246;SDS011;5168;47.854;7.944;2022-12-18T02:42:37;1.60;;;1.50;;
10246;SDS011;5168;47.854;7.944;2022-12-18T02:45:03;1.80;;;1.70;;
10246;SDS011;5168;47.854;7.944;2022-12-18T02:47:29;1.93;;;1.83;;
10246;SDS011;5168;47.854;7.944;2022-12-18T02:50:14;1.77;;;1.67;;
10246;SDS011;5168;47.854;7.944;2022-12-18T02:52:51;1.93;;;1.83;;
10246;SDS011;5168;47.854;7.944;2022-12-18T02:55:44;1.80;;;1.70;;
10246;SDS011;5168;47.854;7.944;2022-12-18T02:58:20;1.90;;;1.80;;
10246;SDS011;5168;47.854;7.944;2022-12-18T03:00:48;1.70;;;1.60;;
10246;SDS011;5168;47.854;7.944;2022-12-18T03:03:40;1.70;;;1.60;;
10246;SDS011;5168;47.854;7.944;2022-12-18T03:06:23;1.80;;;1.70;;
10246;SDS011;5168;47.854;7.944;2022-12-18T03:08:50;1.80;;;1.70;;
10246;SDS011;5168;47.854;7.944;2022-12-18T03:11:21;1.83;;;1.73;;
10246;SDS011;5168;47.854;7.944;2022-12-18T03:14:06;1.50;;;1.40;;
10246;SDS011;5168;47.854;7.944;2022-12-18T03:16:34;1.70;;;1.60;;
10246;SDS011;5168;47.854;7.944;2022-12-18T03:19:12;1.70;;;1.60;;
10246;SDS011;5168;47.854;7.944;2022-12-18T03:21:42;1.67;;;1.57;;
10246;SDS011;5168;47.854;7.944;2022-12-18T03:24:10;1.50;;;1.40;;
10246;SDS011;5168;47.854;7.944;2022-12-18T03:26:37;1.70;;;1.60;;
10246;SDS011;5168;47.854;7.944;2022-12-18T03:29:17;1.70;;;1.60;;
10246;SDS011;5168;47.854;7.944;2022-12-18T03:31:52;1.70;;;1.60;;
10246;SDS011;5168;47.854;7.944;2022-12-18T03:34:23;1.47;;;1.37;;
10246;SDS011;5168;47.854;7.944;2022-12-18T03:36:58;1.60;;;1.50;;
10246;SDS011;5168;47.854;7.944;2022-12-18T03:39:24;1.60;;;1.50;;
10246;SDS011;5168;47.854;7.944;2022-12-18T03:44:20;1.50;;;1.40;;
10246;SDS011;5168;47.854;7.944;2022-12-18T03:49:38;1.60;;;1.50;;
10246;SDS011;5168;47.854;7.944;2022-12-18T03:52:08;1.90;;;1.80;;
10246;SDS011;5168;47.854;7.944;2022-12-18T03:54:40;1.63;;;1.53;;
10246;SDS011;5168;47.854;7.944;2022-12-18T03:57:11;1.60;;;1.50;;
10246;SDS011;5168;47.854;7.944;2022-12-18T03:59:41;1.80;;;1.70;;
10246;SDS011;5168;47.854;7.944;2022-12-18T04:02:08;1.60;;;1.50;;
10246;SDS011;5168;47.854;7.944;2022-12-18T04:04:38;1.50;;;1.40;;
10246;SDS011;5168;47.854;7.944;2022-12-18T04:07:05;1.80;;;1.70;;
10246;SDS011;5168;47.854;7.944;2022-12-18T04:09:31;1.70;;;1.60;;
10246;SDS011;5168;47.854;7.944;2022-12-18T04:11:58;1.50;;;1.40;;
10246;SDS011;5168;47.854;7.944;2022-12-18T04:14:24;1.50;;;1.40;;
10246;SDS011;5168;47.854;7.944;2022-12-18T04:16:49;1.70;;;1.60;;
10246;SDS011;5168;47.854;7.944;2022-12-18T04:19:15;2.90;;;1.50;;
10246;SDS011;5168;47.854;7.944;2022-12-18T04:21:41;1.90;;;1.80;;
10246;SDS011;5168;47.854;7.944;2022-12-18T04:24:06;1.87;;;1.77;;
10246;SDS011;5168;47.854;7.944;2022-12-18T04:26:32;2.30;;;1.60;;
10246;SDS011;5168;47.854;7.944;2022-12-18T04:28:57;1.67;;;1.57;;
10246;SDS011;5168;47.854;7.944;2022-12-18T04:31:23;1.60;;;1.50;;
10246;SDS011;5168;47.854;7.944;2022-12-18T04:33:49;1.50;;;1.40;;
10246;SDS011;5168;47.854;7.944;2022-12-18T04:36:14;1.70;;;1.60;;
10246;SDS011;5168;47.854;7.944;2022-12-18T04:38:40;1.73;;;1.63;;
10246;SDS011;5168;47.854;7.944;2022-12-18T04:41:06;1.70;;;1.60;;
10246;SDS011;5168;47.854;7.944;2022-12-18T04:43:31;1.50;;;1.40;;
10246;SDS011;5168;47.854;7.944;2022-12-18T04:46:01;3.57;;;1.50;;
10246;SDS011;5168;47.854;7.944;2022-12-18T04:48:31;1.93;;;1.83;;
10246;SDS011;5168;47.854;7.944;2022-12-18T04:50:57;1.80;;;1.70;;
10246;SDS011;5168;47.854;7.944;2022-12-18T04:53:23;1.77;;;1.67;;
10246;SDS011;5168;47.854;7.944;2022-12-18T04:55:48;1.80;;;1.70;;
10246;SDS011;5168;47.854;7.944;2022-12-18T04:58:14;1.43;;;1.33;;
10246;SDS011;5168;47.854;7.944;2022-12-18T05:00:40;2.03;;;1.70;;
10246;SDS011;5168;47.854;7.944;2022-12-18T05:03:06;3.70;;;1.53;;
10246;SDS011;5168;47.854;7.944;2022-12-18T05:05:31;1.50;;;1.40;;
10246;SDS011;5168;47.854;7.944;2022-12-18T05:08:00;1.57;;;1.47;;
10246;SDS011;5168;47.854;7.944;2022-12-18T05:10:26;1.73;;;1.63;;
10246;SDS011;5168;47.854;7.944;2022-12-18T05:12:51;1.50;;;1.40;;
10246;SDS011;5168;47.854;7.944;2022-12-18T05:15:24;1.70;;;1.60;;
10246;SDS011;5168;47.854;7.944;2022-12-18T05:17:56;1.47;;;1.37;;
10246;SDS011;5168;47.854;7.944;2022-12-18T05:20:22;1.53;;;1.43;;
10246;SDS011;5168;47.854;7.944;2022-12-18T05:22:49;1.70;;;1.60;;
10246;SDS011;5168;47.854;7.944;2022-12-18T05:25:15;1.50;;;1.40;;
10246;SDS011;5168;47.854;7.944;2022-12-18T05:27:41;1.60;;;1.50;;
10246;SDS011;5168;47.854;7.944;2022-12-18T05:30:07;1.60;;;1.50;;
10246;SDS011;5168;47.854;7.944;2022-12-18T05:32:34;1.80;;;1.70;;
10246;SDS011;5168;47.854;7.944;2022-12-18T05:34:59;1.80;;;1.70;;
10246;SDS011;5168;47.854;7.944;2022-12-18T05:37:25;1.70;;;1.60;;
10246;SDS011;5168;47.854;7.944;2022-12-18T05:39:51;1.60;;;1.50;;
10246;SDS011;5168;47.854;7.944;2022-12-18T05:42:17;1.73;;;1.63;;
10246;SDS011;5168;47.854;7.944;2022-12-18T05:44:43;1.63;;;1.53;;
10246;SDS011;5168;47.854;7.944;2022-12-18T05:47:09;1.80;;;1.70;;
10246;SDS011;5168;47.854;7.944;2022-12-18T05:49:34;1.70;;;1.60;;
10246;SDS011;5168;47.854;7.944;2022-12-18T05:52:00;2.10;;;1.90;;
10246;SDS011;5168;47.854;7.944;2022-12-18T05:54:29;1.47;;;1.37;;
10246;SDS011;5168;47.854;7.944;2022-12-18T05:56:54;1.70;;;1.60;;
10246;SDS011;5168;47.854;7.944;2022-12-18T05:59:20;1.60;;;1.50;;
10246;SDS011;5168;47.854;7.944;2022-12-18T06:01:45;1.40;;;1.30;;
10246;SDS011;5168;47.854;7.944;2022-12-18T06:04:11;1.67;;;1.57;;
10246;SDS011;5168;47.854;7.944;2022-12-18T06:06:37;1.80;;;1.70;;
10246;SDS011;5168;47.854;7.944;2022-12-18T06:09:03;1.57;;;1.47;;
10246;SDS011;5168;47.854;7.944;2022-12-18T06:11:34;1.60;;;1.50;;
10246;SDS011;5168;47.854;7.944;2022-12-18T06:14:02;1.70;;;1.60;;
10246;SDS011;5168;47.854;7.944;2022-12-18T06:16:29;1.60;;;1.50;;
10246;SDS011;5168;47.854;7.944;2022-12-18T06:18:56;1.67;;;1.57;;
10246;SDS011;5168;47.854;7.944;2022-12-18T06:21:22;1.80;;;1.70;;
10246;SDS011;5168;47.854;7.944;2022-12-18T06:23:47;1.60;;;1.50;;
10246;SDS011;5168;47.854;7.944;2022-12-18T06:26:15;1.50;;;1.40;;
10246;SDS011;5168;47.854;7.944;2022-12-18T06:28:40;1.50;;;1.40;;
10246;SDS011;5168;47.854;7.944;2022-12-18T06:31:07;1.80;;;1.70;;
10246;SDS011;5168;47.854;7.944;2022-12-18T06:33:33;1.67;;;1.57;;
10246;SDS011;5168;47.854;7.944;2022-12-18T06:36:00;1.83;;;1.73;;
10246;SDS011;5168;47.854;7.944;2022-12-18T06:38:26;1.60;;;1.50;;
10246;SDS011;5168;47.854;7.944;2022-12-18T06:40:52;2.60;;;1.40;;
10246;SDS011;5168;47.854;7.944;2022-12-18T06:43:18;1.67;;;1.57;;
10246;SDS011;5168;47.854;7.944;2022-12-18T06:45:43;1.63;;;1.53;;
10246;SDS011;5168;47.854;7.944;2022-12-18T06:48:09;1.40;;;1.30;;
10246;SDS011;5168;47.854;7.944;2022-12-18T06:50:35;1.63;;;1.53;;
10246;SDS011;5168;47.854;7.944;2022-12-18T06:53:00;1.70;;;1.60;;
10246;SDS011;5168;47.854;7.944;2022-12-18T06:55:26;1.63;;;1.53;;
10246;SDS011;5168;47.854;7.944;2022-12-18T06:57:52;1.77;;;1.67;;
10246;SDS011;5168;47.854;7.944;2022-12-18T07:00:18;1.50;;;1.40;;
10246;SDS011;5168;47.854;7.944;2022-12-18T07:02:44;2.40;;;1.50;;
10246;SDS011;5168;47.854;7.944;2022-12-18T07:05:10;1.63;;;1.53;;
10246;SDS011;5168;47.854;7.944;2022-12-18T07:07:36;1.67;;;1.57;;
10246;SDS011;5168;47.854;7.944;2022-12-18T07:10:02;1.70;;;1.60;;
10246;SDS011;5168;47.854;7.944;2022-12-18T07:12:28;1.70;;;1.60;;
10246;SDS011;5168;47.854;7.944;2022-12-18T07:14:53;1.60;;;1.50;;
10246;SDS011;5168;47.854;7.944;2022-12-18T07:17:19;1.80;;;1.70;;
10246;SDS011;5168;47.854;7.944;2022-12-18T07:19:45;2.30;;;1.80;;
10246;SDS011;5168;47.854;7.944;2022-12-18T07:22:11;1.90;;;1.80;;
10246;SDS011;5168;47.854;7.944;2022-12-18T07:24:36;1.70;;;1.60;;
10246;SDS011;5168;47.854;7.944;2022-12-18T07:27:02;2.80;;;2.13;;
10246;SDS011;5168;47.854;7.944;2022-12-18T07:29:28;12.43;;;6.57;;
10246;SDS011;5168;47.854;7.944;2022-12-18T07:31:54;14.53;;;7.40;;
10246;SDS011;5168;47.854;7.944;2022-12-18T07:34:20;11.07;;;6.37;;
10246;SDS011;5168;47.854;7.944;2022-12-18T07:36:46;8.03;;;3.57;;
10246;SDS011;5168;47.854;7.944;2022-12-18T07:39:11;5.40;;;3.40;;
10246;SDS011;5168;47.854;7.944;2022-12-18T07:41:37;4.83;;;3.27;;
10246;SDS011;5168;47.854;7.944;2022-12-18T07:44:03;3.23;;;2.33;;
10246;SDS011;5168;47.854;7.944;2022-12-18T07:46:29;5.50;;;3.43;;
10246;SDS011;5168;47.854;7.944;2022-12-18T07:48:54;6.90;;;3.40;;
10246;SDS011;5168;47.854;7.944;2022-12-18T07:51:20;4.10;;;3.30;;
10246;SDS011;5168;47.854;7.944;2022-12-18T07:53:46;5.73;;;3.30;;
10246;SDS011;5168;47.854;7.944;2022-12-18T07:56:12;5.83;;;3.70;;
10246;SDS011;5168;47.854;7.944;2022-12-18T07:58:38;3.47;;;2.53;;
10246;SDS011;5168;47.854;7.944;2022-12-18T08:01:04;3.13;;;2.47;;
10246;SDS011;5168;47.854;7.944;2022-12-18T08:03:32;2.60;;;2.40;;
10246;SDS011;5168;47.854;7.944;2022-12-18T08:05:58;1.90;;;1.80;;
10246;SDS011;5168;47.854;7.944;2022-12-18T08:08:28;2.10;;;1.90;;
10246;SDS011;5168;47.854;7.944;2022-12-18T08:10:54;2.00;;;1.80;;
10246;SDS011;5168;47.854;7.944;2022-12-18T08:13:20;1.80;;;1.67;;
10246;SDS011;5168;47.854;7.944;2022-12-18T08:15:46;1.60;;;1.50;;
10246;SDS011;5168;47.854;7.944;2022-12-18T08:18:19;3.07;;;2.13;;
10246;SDS011;5168;47.854;7.944;2022-12-18T08:20:45;2.30;;;2.10;;
10246;SDS011;5168;47.854;7.944;2022-12-18T08:23:11;2.33;;;2.10;;
10246;SDS011;5168;47.854;7.944;2022-12-18T08:25:36;2.27;;;1.93;;
10246;SDS011;5168;47.854;7.944;2022-12-18T08:28:02;2.30;;;2.10;;
10246;SDS011;5168;47.854;7.944;2022-12-18T08:30:28;2.20;;;2.00;;
10246;SDS011;5168;47.854;7.944;2022-12-18T08:32:53;2.47;;;1.70;;
10246;SDS011;5168;47.854;7.944;2022-12-18T08:35:19;2.43;;;1.90;;
10246;SDS011;5168;47.854;7.944;2022-12-18T08:37:44;1.90;;;1.70;;
10246;SDS011;5168;47.854;7.944;2022-12-18T08:40:10;2.17;;;1.97;;
10246;SDS011;5168;47.854;7.944;2022-12-18T08:42:36;2.33;;;1.80;;
10246;SDS011;5168;47.854;7.944;2022-12-18T08:45:20;3.50;;;3.20;;
10246;SDS011;5168;47.854;7.944;2022-12-18T08:47:46;4.60;;;4.03;;
10246;SDS011;5168;47.854;7.944;2022-12-18T08:50:11;2.90;;;2.47;;
10246;SDS011;5168;47.854;7.944;2022-12-18T08:52:37;2.30;;;2.10;;
10246;SDS011;5168;47.854;7.944;2022-12-18T08:55:03;2.20;;;2.10;;
10246;SDS011;5168;47.854;7.944;2022-12-18T08:57:29;2.30;;;2.10;;
10246;SDS011;5168;47.854;7.944;2022-12-18T08:59:55;2.33;;;2.13;;
10246;SDS011;5168;47.854;7.944;2022-12-18T09:02:21;1.93;;;1.83;;
10246;SDS011;5168;47.854;7.944;2022-12-18T09:04:47;2.00;;;1.90;;
10246;SDS011;5168;47.854;7.944;2022-12-18T09:07:12;2.03;;;1.73;;
10246;SDS011;5168;47.854;7.944;2022-12-18T09:09:38;1.80;;;1.70;;
10246;SDS011;5168;47.854;7.944;2022-12-18T09:12:03;1.80;;;1.70;;
10246;SDS011;5168;47.854;7.944;2022-12-18T09:14:29;2.00;;;1.80;;
10246;SDS011;5168;47.854;7.944;2022-12-18T09:16:55;2.20;;;1.80;;
10246;SDS011;5168;47.854;7.944;2022-12-18T09:19:20;2.40;;;2.10;;
10246;SDS011;5168;47.854;7.944;2022-12-18T09:21:46;2.40;;;2.20;;
10246;SDS011;5168;47.854;7.944;2022-12-18T09:24:12;2.37;;;1.90;;
10246;SDS011;5168;47.854;7.944;2022-12-18T09:26:38;2.33;;;2.10;;
10246;SDS011;5168;47.854;7.944;2022-12-18T09:29:04;2.63;;;2.17;;
10246;SDS011;5168;47.854;7.944;2022-12-18T09:31:32;2.40;;;2.20;;
10246;SDS011;5168;47.854;7.944;2022-12-18T09:33:58;1.90;;;1.80;;
10246;SDS011;5168;47.854;7.944;2022-12-18T09:36:23;2.50;;;2.30;;
10246;SDS011;5168;47.854;7.944;2022-12-18T09:38:49;3.03;;;2.37;;
10246;SDS011;5168;47.854;7.944;2022-12-18T09:41:17;2.47;;;2.20;;
10246;SDS011;5168;47.854;7.944;2022-12-18T09:49:30;2.00;;;1.80;;
10246;SDS011;5168;47.854;7.944;2022-12-18T09:52:04;2.30;;;2.10;;
10246;SDS011;5168;47.854;7.944;2022-12-18T09:54:39;3.97;;;2.70;;
10246;SDS011;5168;47.854;7.944;2022-12-18T09:57:10;3.27;;;2.80;;
10246;SDS011;5168;47.854;7.944;2022-12-18T09:59:40;4.07;;;2.73;;
10246;SDS011;5168;47.854;7.944;2022-12-18T10:02:19;3.27;;;2.97;;
10246;SDS011;5168;47.854;7.944;2022-12-18T10:04:50;3.57;;;2.77;;
10246;SDS011;5168;47.854;7.944;2022-12-18T10:13:02;3.37;;;2.63;;
10246;SDS011;5168;47.854;7.944;2022-12-18T10:15:50;3.00;;;2.30;;
10246;SDS011;5168;47.854;7.944;2022-12-18T10:27:15;2.10;;;1.90;;
10246;SDS011;5168;47.854;7.944;2022-12-18T10:29:47;2.07;;;1.87;;
10246;SDS011;5168;47.854;7.944;2022-12-18T10:32:18;2.40;;;2.20;;
10246;SDS011;5168;47.854;7.944;2022-12-18T10:34:47;2.00;;;1.80;;
10246;SDS011;5168;47.854;7.944;2022-12-18T10:37:18;2.17;;;1.97;;
10246;SDS011;5168;47.854;7.944;2022-12-18T10:39:46;2.27;;;2.07;;
10246;SDS011;5168;47.854;7.944;2022-12-18T10:42:29;2.30;;;2.10;;
10246;SDS011;5168;47.854;7.944;2022-12-18T10:45:08;2.37;;;2.13;;
10246;SDS011;5168;47.854;7.944;2022-12-18T10:47:36;2.60;;;2.40;;
10246;SDS011;5168;47.854;7.944;2022-12-18T10:50:11;5.27;;;3.53;;
10246;SDS011;5168;47.854;7.944;2022-12-18T10:52:58;3.53;;;3.10;;
10246;SDS011;5168;47.854;7.944;2022-12-18T10:55:32;4.03;;;3.37;;
10246;SDS011;5168;47.854;7.944;2022-12-18T11:01:12;2.83;;;2.40;;
10246;SDS011;5168;47.854;7.944;2022-12-18T11:03:44;4.73;;;3.00;;
10246;SDS011;5168;47.854;7.944;2022-12-18T11:06:19;3.30;;;3.00;;
10246;SDS011;5168;47.854;7.944;2022-12-18T11:09:02;3.53;;;2.67;;
10246;SDS011;5168;47.854;7.944;2022-12-18T11:11:31;4.47;;;2.60;;
10246;SDS011;5168;47.854;7.944;2022-12-18T11:14:01;2.87;;;2.50;;
10246;SDS011;5168;47.854;7.944;2022-12-18T11:16:30;3.43;;;2.73;;
10246;SDS011;5168;47.854;7.944;2022-12-18T11:19:46;3.27;;;2.63;;
10246;SDS011;5168;47.854;7.944;2022-12-18T11:22:00;2.83;;;1.90;;
10246;SDS011;5168;47.854;7.944;2022-12-18T11:24:32;3.57;;;2.33;;
10246;SDS011;5168;47.854;7.944;2022-12-18T11:27:03;2.20;;;1.97;;
10246;SDS011;5168;47.854;7.944;2022-12-18T11:29:32;2.87;;;1.80;;
10246;SDS011;5168;47.854;7.944;2022-12-18T11:37:46;2.53;;;2.30;;
10246;SDS011;5168;47.854;7.944;2022-12-18T11:40:25;4.13;;;2.83;;
10246;SDS011;5168;47.854;7.944;2022-12-18T11:43:18;3.50;;;2.60;;
10246;SDS011;5168;47.854;7.944;2022-12-18T11:45:52;2.83;;;2.40;;
10246;SDS011;5168;47.854;7.944;2022-12-18T11:48:24;2.07;;;1.90;;
10246;SDS011;5168;47.854;7.944;2022-12-18T11:50:54;2.27;;;2.07;;
10246;SDS011;5168;47.854;7.944;2022-12-18T11:53:22;1.67;;;1.57;;
10246;SDS011;5168;47.854;7.944;2022-12-18T11:56:01;2.03;;;1.70;;
10246;SDS011;5168;47.854;7.944;2022-12-18T11:58:47;1.40;;;1.30;;
10246;SDS011;5168;47.854;7.944;2022-12-18T12:06:58;3.80;;;2.80;;
10246;SDS011;5168;47.854;7.944;2022-12-18T12:09:55;2.73;;;2.40;;
10246;SDS011;5168;47.854;7.944;2022-12-18T12:12:55;4.23;;;2.90;;
10246;SDS011;5168;47.854;7.944;2022-12-18T12:23:19;6.67;;;2.80;;
10246;SDS011;5168;47.854;7.944;2022-12-18T12:26:06;4.17;;;2.57;;
10246;SDS011;5168;47.854;7.944;2022-12-18T12:28:46;2.73;;;2.40;;
10246;SDS011;5168;47.854;7.944;2022-12-18T12:39:38;2.40;;;2.17;;
10246;SDS011;5168;47.854;7.944;2022-12-18T12:42:06;2.27;;;2.07;;
10246;SDS011;5168;47.854;7.944;2022-12-18T12:45:03;2.20;;;2.00;;
10246;SDS011;5168;47.854;7.944;2022-12-18T12:47:32;2.37;;;2.17;;
10246;SDS011;5168;47.854;7.944;2022-12-18T12:50:03;2.90;;;2.13;;
10246;SDS011;5168;47.854;7.944;2022-12-18T12:52:35;2.20;;;2.00;;
10246;SDS011;5168;47.854;7.944;2022-12-18T12:55:12;2.17;;;1.97;;
10246;SDS011;5168;47.854;7.944;2022-12-18T12:57:59;4.60;;;2.30;;
10246;SDS011;5168;47.854;7.944;2022-12-18T13:00:49;2.73;;;2.00;;
10246;SDS011;5168;47.854;7.944;2022-12-18T13:06:09;3.50;;;2.30;;
10246;SDS011;5168;47.854;7.944;2022-12-18T13:08:58;2.20;;;2.00;;
10246;SDS011;5168;47.854;7.944;2022-12-18T13:11:32;2.97;;;2.30;;
10246;SDS011;5168;47.854;7.944;2022-12-18T13:17:14;2.40;;;2.20;;
10246;SDS011;5168;47.854;7.944;2022-12-18T13:19:49;2.47;;;2.20;;
10246;SDS011;5168;47.854;7.944;2022-12-18T13:22:23;2.00;;;1.80;;
10246;SDS011;5168;47.854;7.944;2022-12-18T13:24:53;2.40;;;2.00;;
10246;SDS011;5168;47.854;7.944;2022-12-18T13:38:32;1.70;;;1.60;;
10246;SDS011;5168;47.854;7.944;2022-12-18T13:43:53;1.77;;;1.67;;
10246;SDS011;5168;47.854;7.944;2022-12-18T13:46:30;1.93;;;1.77;;
10246;SDS011;5168;47.854;7.944;2022-12-18T13:51:58;1.97;;;1.87;;
10246;SDS011;5168;47.854;7.944;2022-12-18T13:57:05;2.27;;;1.57;;
10246;SDS011;5168;47.854;7.944;2022-12-18T13:59:49;1.60;;;1.50;;
10246;SDS011;5168;47.854;7.944;2022-12-18T14:02:16;2.07;;;1.87;;
10246;SDS011;5168;47.854;7.944;2022-12-18T14:04:53;1.67;;;1.57;;
10246;SDS011;5168;47.854;7.944;2022-12-18T14:07:26;2.37;;;2.10;;
10246;SDS011;5168;47.854;7.944;2022-12-18T14:09:54;7.80;;;3.70;;
10246;SDS011;5168;47.854;7.944;2022-12-18T14:17:58;15.53;;;9.63;;
10246;SDS011;5168;47.854;7.944;2022-12-18T14:20:27;13.47;;;8.83;;
10246;SDS011;5168;47.854;7.944;2022-12-18T14:22:54;9.67;;;6.93;;
10246;SDS011;5168;47.854;7.944;2022-12-18T14:25:22;10.97;;;6.23;;
10246;SDS011;5168;47.854;7.944;2022-12-18T14:30:32;12.07;;;7.23;;
10246;SDS011;5168;47.854;7.944;2022-12-18T14:33:14;14.37;;;9.00;;
10246;SDS011;5168;47.854;7.944;2022-12-18T14:38:34;9.17;;;6.03;;
10246;SDS011;5168;47.854;7.944;2022-12-18T14:43:34;9.77;;;6.93;;
10246;SDS011;5168;47.854;7.944;2022-12-18T14:46:01;10.23;;;5.43;;
10246;SDS011;5168;47.854;7.944;2022-12-18T14:53:35;3.30;;;3.00;;
10246;SDS011;5168;47.854;7.944;2022-12-18T14:56:14;2.90;;;2.50;;
10246;SDS011;5168;47.854;7.944;2022-12-18T14:58:43;3.03;;;2.63;;
10246;SDS011;5168;47.854;7.944;2022-12-18T15:01:26;3.13;;;2.70;;
10246;SDS011;5168;47.854;7.944;2022-12-18T15:04:00;2.93;;;2.60;;
10246;SDS011;5168;47.854;7.944;2022-12-18T15:06:32;2.20;;;2.00;;
10246;SDS011;5168;47.854;7.944;2022-12-18T15:09:04;1.90;;;1.80;;
10246;SDS011;5168;47.854;7.944;2022-12-18T15:11:45;2.50;;;2.07;;
10246;SDS011;5168;47.854;7.944;2022-12-18T15:17:16;2.77;;;2.20;;
10246;SDS011;5168;47.854;7.944;2022-12-18T15:19:44;3.23;;;2.77;;
10246;SDS011;5168;47.854;7.944;2022-12-18T15:22:15;5.00;;;3.77;;
10246;SDS011;5168;47.854;7.944;2022-12-18T15:24:45;5.27;;;3.60;;
10246;SDS011;5168;47.854;7.944;2022-12-18T15:32:39;37.30;;;18.97;;
10246;SDS011;5168;47.854;7.944;2022-12-18T15:37:45;28.63;;;15.27;;
10246;SDS011;5168;47.854;7.944;2022-12-18T15:40:12;19.63;;;11.10;;
10246;SDS011;5168;47.854;7.944;2022-12-18T15:42:50;10.60;;;6.93;;
10246;SDS011;5168;47.854;7.944;2022-12-18T15:45:36;5.70;;;4.00;;
10246;SDS011;5168;47.854;7.944;2022-12-18T15:48:04;4.43;;;3.20;;
10246;SDS011;5168;47.854;7.944;2022-12-18T15:50:46;4.20;;;3.30;;
10246;SDS011;5168;47.854;7.944;2022-12-18T15:53:11;3.63;;;3.20;;
10246;SDS011;5168;47.854;7.944;2022-12-18T15:55:37;5.33;;;4.77;;
10246;SDS011;5168;47.854;7.944;2022-12-18T15:58:21;14.47;;;10.03;;
10246;SDS011;5168;47.854;7.944;2022-12-18T16:00:46;15.37;;;10.30;;
10246;SDS011;5168;47.854;7.944;2022-12-18T16:03:12;12.13;;;7.83;;
10246;SDS011;5168;47.854;7.944;2022-12-18T16:05:38;6.47;;;5.20;;
10246;SDS011;5168;47.854;7.944;2022-12-18T16:08:03;6.53;;;5.13;;
10246;SDS011;5168;47.854;7.944;2022-12-18T16:10:29;5.47;;;4.27;;
10246;SDS011;5168;47.854;7.944;2022-12-18T16:12:54;3.90;;;3.50;;
10246;SDS011;5168;47.854;7.944;2022-12-18T16:15:20;3.80;;;3.33;;
10246;SDS011;5168;47.854;7.944;2022-12-18T16:17:46;3.50;;;3.20;;
10246;SDS011;5168;47.854;7.944;2022-12-18T16:20:13;4.77;;;3.63;;
10246;SDS011;5168;47.854;7.944;2022-12-18T16:22:43;4.13;;;3.40;;
10246;SDS011;5168;47.854;7.944;2022-12-18T16:25:17;3.20;;;2.90;;
10246;SDS011;5168;47.854;7.944;2022-12-18T16:27:44;3.60;;;2.90;;
10246;SDS011;5168;47.854;7.944;2022-12-18T16:30:17;3.10;;;2.50;;
10246;SDS011;5168;47.854;7.944;2022-12-18T16:32:47;2.37;;;2.17;;
10246;SDS011;5168;47.854;7.944;2022-12-18T16:35:13;3.00;;;2.50;;
10246;SDS011;5168;47.854;7.944;2022-12-18T16:37:40;2.30;;;2.10;;
10246;SDS011;5168;47.854;7.944;2022-12-18T16:40:06;2.43;;;2.00;;
10246;SDS011;5168;47.854;7.944;2022-12-18T16:42:34;2.33;;;1.87;;
10246;SDS011;5168;47.854;7.944;2022-12-18T16:45:04;2.00;;;1.90;;
10246;SDS011;5168;47.854;7.944;2022-12-18T16:47:31;2.00;;;1.90;;
10246;SDS011;5168;47.854;7.944;2022-12-18T16:49:57;3.67;;;2.30;;
10246;SDS011;5168;47.854;7.944;2022-12-18T16:52:23;2.77;;;2.50;;
10246;SDS011;5168;47.854;7.944;2022-12-18T16:54:48;2.40;;;2.20;;
10246;SDS011;5168;47.854;7.944;2022-12-18T16:57:15;2.77;;;2.33;;
10246;SDS011;5168;47.854;7.944;2022-12-18T16:59:42;2.40;;;2.20;;
10246;SDS011;5168;47.854;7.944;2022-12-18T17:02:15;2.13;;;2.03;;
10246;SDS011;5168;47.854;7.944;2022-12-18T17:04:45;2.20;;;2.00;;
10246;SDS011;5168;47.854;7.944;2022-12-18T17:07:11;2.00;;;1.90;;
10246;SDS011;5168;47.854;7.944;2022-12-18T17:09:37;1.93;;;1.80;;
10246;SDS011;5168;47.854;7.944;2022-12-18T17:12:03;1.90;;;1.80;;
10246;SDS011;5168;47.854;7.944;2022-12-18T17:14:29;1.93;;;1.70;;
10246;SDS011;5168;47.854;7.944;2022-12-18T17:16:55;1.80;;;1.70;;